sensor_id;sensor_type;location;lat;lon;timestamp;pressure;altitude;pressure_sealevel;temperature;humidity
39699;BME280;25372;50.582;12.250;2023-11-19T00:01:38;99807.66;;;2.35;100.00
39699;BME280;25372;50.582;12.250;2023-11-19T00:12:00;99766.97;;;2.37;100.00
39699;BME280;25372;50.582;12.250;2023-11-19T00:22:21;99743.84;;;2.31;100.00
39699;BME280;25372;50.582;12.250;2023-11-19T00:32:43;99716.88;;;2.36;99.40
39699;BME280;25372;50.582;12.250;2023-11-19T00:43:05;99710.28;;;2.26;99.94
39699;BME280;25372;50.582;12.250;2023-11-19T00:53:28;99687.91;;;2.23;98.92
39699;BME280;25372;50.582;12.250;2023-11-19T01:03:48;99667.31;;;2.19;99.88
39699;BME280;25372;50.582;12.250;2023-11-19T01:14:11;99628.41;;;2.20;99.30
39699;BME280;25372;50.582;12.250;2023-11-19T01:24:31;99608.13;;;2.06;99.14
39699;BME280;25372;50.582;12.250;2023-11-19T01:34:53;99586.31;;;2.14;99.48
39699;BME280;25372;50.582;12.250;2023-11-19T01:45:22;99569.31;;;2.32;100.00
39699;BME280;25372;50.582;12.250;2023-11-19T01:55:49;99542.59;;;2.30;100.00
39699;BME280;25372;50.582;12.250;2023-11-19T02:06:11;99494.88;;;2.35;99.58
39699;BME280;25372;50.582;12.250;2023-11-19T02:16:34;99495.06;;;2.55;99.67
39699;BME280;25372;50.582;12.250;2023-11-19T02:27:00;99446.75;;;2.76;99.30
39699;BME280;25372;50.582;12.250;2023-11-19T02:37:25;99419.22;;;2.96;97.08
39699;BME280;25372;50.582;12.250;2023-11-19T02:47:47;99390.31;;;3.05;98.74
39699;BME280;25372;50.582;12.250;2023-11-19T02:58:09;99377.88;;;3.13;98.84
39699;BME280;25372;50.582;12.250;2023-11-19T03:08:39;99346.09;;;3.29;96.54
39699;BME280;25372;50.582;12.250;2023-11-19T03:19:01;99326.03;;;3.12;98.65
39699;BME280;25372;50.582;12.250;2023-11-19T03:29:23;99312.09;;;3.14;98.21
39699;BME280;25372;50.582;12.250;2023-11-19T03:39:47;99304.91;;;3.21;97.34
39699;BME280;25372;50.582;12.250;2023-11-19T03:50:08;99274.91;;;3.14;96.55
39699;BME280;25372;50.582;12.250;2023-11-19T04:00:30;99241.00;;;3.18;99.57
39699;BME280;25372;50.582;12.250;2023-11-19T04:10:51;99243.34;;;3.25;97.83
39699;BME280;25372;50.582;12.250;2023-11-19T04:21:13;99222.56;;;3.25;97.06
39699;BME280;25372;50.582;12.250;2023-11-19T04:31:33;99205.31;;;3.24;97.52
39699;BME280;25372;50.582;12.250;2023-11-19T04:41:55;99201.88;;;3.02;100.00
39699;BME280;25372;50.582;12.250;2023-11-19T04:52:16;99174.53;;;2.95;100.00
39699;BME280;25372;50.582;12.250;2023-11-19T05:02:38;99134.13;;;2.69;100.00
39699;BME280;25372;50.582;12.250;2023-11-19T05:12:59;99152.66;;;3.01;100.00
39699;BME280;25372;50.582;12.250;2023-11-19T05:23:22;99128.88;;;2.70;100.00
39699;BME280;25372;50.582;12.250;2023-11-19T05:33:43;99111.69;;;2.88;100.00
39699;BME280;25372;50.582;12.250;2023-11-19T05:44:05;99118.22;;;2.97;100.00
39699;BME280;25372;50.582;12.250;2023-11-19T05:54:26;99116.16;;;2.85;100.00
39699;BME280;25372;50.582;12.250;2023-11-19T06:04:48;99097.41;;;2.99;100.00
39699;BME280;25372;50.582;12.250;2023-11-19T06:15:09;99054.09;;;3.01;100.00
39699;BME280;25372;50.582;12.250;2023-11-19T06:25:32;99047.84;;;3.05;100.00
39699;BME280;25372;50.582;12.250;2023-11-19T06:35:54;99024.53;;;2.84;100.00
39699;BME280;25372;50.582;12.250;2023-11-19T06:46:17;99036.84;;;3.00;100.00
39699;BME280;25372;50.582;12.250;2023-11-19T06:56:38;99034.50;;;2.93;100.00
39699;BME280;25372;50.582;12.250;2023-11-19T07:07:00;99034.31;;;2.98;100.00
39699;BME280;25372;50.582;12.250;2023-11-19T07:17:21;99041.03;;;3.02;100.00
39699;BME280;25372;50.582;12.250;2023-11-19T07:27:45;99055.25;;;3.13;100.00
39699;BME280;25372;50.582;12.250;2023-11-19T07:38:07;99038.34;;;3.42;100.00
39699;BME280;25372;50.582;12.250;2023-11-19T07:48:29;99039.31;;;3.59;100.00
39699;BME280;25372;50.582;12.250;2023-11-19T07:58:51;99019.53;;;4.11;100.00
39699;BME280;25372;50.582;12.250;2023-11-19T08:09:13;99048.88;;;6.10;100.00
39699;BME280;25372;50.582;12.250;2023-11-19T08:19:34;99008.28;;;6.66;100.00
39699;BME280;25372;50.582;12.250;2023-11-19T08:29:56;98997.84;;;6.66;100.00
39699;BME280;25372;50.582;12.250;2023-11-19T08:40:17;98999.88;;;7.32;100.00
39699;BME280;25372;50.582;12.250;2023-11-19T08:50:40;99000.56;;;8.16;99.72
39699;BME280;25372;50.582;12.250;2023-11-19T09:01:01;99015.81;;;8.09;100.00
39699;BME280;25372;50.582;12.250;2023-11-19T09:11:24;99044.38;;;7.72;100.00
39699;BME280;25372;50.582;12.250;2023-11-19T09:21:45;99053.84;;;7.88;100.00
39699;BME280;25372;50.582;12.250;2023-11-19T09:32:09;99048.09;;;7.95;100.00
39699;BME280;25372;50.582;12.250;2023-11-19T09:42:33;99036.03;;;8.20;100.00
39699;BME280;25372;50.582;12.250;2023-11-19T09:53:00;99042.78;;;8.63;100.00
39699;BME280;25372;50.582;12.250;2023-11-19T10:03:22;99045.41;;;8.89;98.43
39699;BME280;25372;50.582;12.250;2023-11-19T10:13:44;99033.13;;;8.38;99.37
39699;BME280;25372;50.582;12.250;2023-11-19T10:24:07;99042.28;;;8.84;96.61
39699;BME280;25372;50.582;12.250;2023-11-19T10:34:29;99036.03;;;9.11;94.59
39699;BME280;25372;50.582;12.250;2023-11-19T10:44:50;99046.69;;;9.34;93.79
39699;BME280;25372;50.582;12.250;2023-11-19T10:55:15;99033.53;;;9.47;95.22
39699;BME280;25372;50.582;12.250;2023-11-19T11:05:37;99031.22;;;9.55;94.12
39699;BME280;25372;50.582;12.250;2023-11-19T11:16:01;99019.25;;;9.51;93.72
39699;BME280;25372;50.582;12.250;2023-11-19T11:26:39;99022.47;;;9.68;92.13
39699;BME280;25372;50.582;12.250;2023-11-19T11:37:11;99028.59;;;9.79;90.26
39699;BME280;25372;50.582;12.250;2023-11-19T11:48:10;99003.13;;;9.44;90.57
39699;BME280;25372;50.582;12.250;2023-11-19T11:58:36;99004.16;;;9.55;90.90
39699;BME280;25372;50.582;12.250;2023-11-19T12:08:59;99000.50;;;10.29;86.67
39699;BME280;25372;50.582;12.250;2023-11-19T12:19:22;98978.38;;;10.67;84.15
39699;BME280;25372;50.582;12.250;2023-11-19T12:29:43;98960.69;;;10.92;82.46
39699;BME280;25372;50.582;12.250;2023-11-19T12:40:12;98965.59;;;10.62;82.31
39699;BME280;25372;50.582;12.250;2023-11-19T12:50:50;98962.31;;;10.36;82.85
39699;BME280;25372;50.582;12.250;2023-11-19T13:01:16;98952.22;;;10.54;82.01
39699;BME280;25372;50.582;12.250;2023-11-19T13:11:38;98950.75;;;10.27;82.14
39699;BME280;25372;50.582;12.250;2023-11-19T13:22:01;98945.56;;;10.03;82.23
39699;BME280;25372;50.582;12.250;2023-11-19T13:32:22;98947.09;;;9.94;80.68
39699;BME280;25372;50.582;12.250;2023-11-19T13:42:44;98941.00;;;9.93;78.81
39699;BME280;25372;50.582;12.250;2023-11-19T13:53:05;98944.41;;;10.07;77.68
39699;BME280;25372;50.582;12.250;2023-11-19T14:03:27;98954.91;;;10.18;75.56
39699;BME280;25372;50.582;12.250;2023-11-19T14:13:48;98979.03;;;9.88;76.45
39699;BME280;25372;50.582;12.250;2023-11-19T14:24:11;98976.44;;;9.99;75.74
39699;BME280;25372;50.582;12.250;2023-11-19T14:34:32;98979.41;;;9.59;79.16
39699;BME280;25372;50.582;12.250;2023-11-19T14:44:54;98982.28;;;9.67;79.88
39699;BME280;25372;50.582;12.250;2023-11-19T14:55:15;98981.75;;;9.50;81.29
39699;BME280;25372;50.582;12.250;2023-11-19T15:05:37;98923.00;;;8.80;82.58
39699;BME280;25372;50.582;12.250;2023-11-19T15:15:58;98965.94;;;8.77;83.51
39699;BME280;25372;50.582;12.250;2023-11-19T15:26:20;98978.63;;;8.58;85.11
39699;BME280;25372;50.582;12.250;2023-11-19T15:36:41;98981.44;;;8.42;85.00
39699;BME280;25372;50.582;12.250;2023-11-19T15:47:03;98980.16;;;8.47;84.59
39699;BME280;25372;50.582;12.250;2023-11-19T15:57:24;98971.69;;;8.44;83.96
39699;BME280;25372;50.582;12.250;2023-11-19T16:07:46;98991.38;;;8.36;84.64
39699;BME280;25372;50.582;12.250;2023-11-19T16:18:07;98988.75;;;8.36;84.24
39699;BME280;25372;50.582;12.250;2023-11-19T16:28:30;98983.63;;;8.35;83.63
39699;BME280;25372;50.582;12.250;2023-11-19T16:38:51;98990.63;;;8.21;84.78
39699;BME280;25372;50.582;12.250;2023-11-19T16:49:14;98987.38;;;8.18;83.97
39699;BME280;25372;50.582;12.250;2023-11-19T16:59:35;98994.91;;;8.22;83.54
39699;BME280;25372;50.582;12.250;2023-11-19T17:09:58;98995.84;;;8.34;82.27
39699;BME280;25372;50.582;12.250;2023-11-19T17:20:19;98995.22;;;8.44;82.51
39699;BME280;25372;50.582;12.250;2023-11-19T17:30:41;98999.63;;;8.30;80.84
39699;BME280;25372;50.582;12.250;2023-11-19T17:41:02;99008.69;;;7.98;81.67
39699;BME280;25372;50.582;12.250;2023-11-19T17:51:24;99008.41;;;8.03;82.25
39699;BME280;25372;50.582;12.250;2023-11-19T18:01:45;98998.81;;;8.30;80.82
39699;BME280;25372;50.582;12.250;2023-11-19T18:12:08;99001.31;;;8.31;79.50
39699;BME280;25372;50.582;12.250;2023-11-19T18:22:29;99014.59;;;8.28;80.94
39699;BME280;25372;50.582;12.250;2023-11-19T18:32:51;99014.06;;;8.10;81.32
39699;BME280;25372;50.582;12.250;2023-11-19T18:43:14;99023.78;;;8.08;81.21
39699;BME280;25372;50.582;12.250;2023-11-19T18:53:37;99014.91;;;7.70;83.81
39699;BME280;25372;50.582;12.250;2023-11-19T19:03:58;99016.59;;;7.56;82.72
39699;BME280;25372;50.582;12.250;2023-11-19T19:14:20;99025.81;;;7.90;81.49
39699;BME280;25372;50.582;12.250;2023-11-19T19:24:41;99012.19;;;8.25;80.62
39699;BME280;25372;50.582;12.250;2023-11-19T19:35:03;99018.59;;;8.47;80.39
39699;BME280;25372;50.582;12.250;2023-11-19T19:45:24;99030.13;;;8.57;79.46
39699;BME280;25372;50.582;12.250;2023-11-19T19:55:46;99037.34;;;8.66;80.11
39699;BME280;25372;50.582;12.250;2023-11-19T20:06:07;99031.59;;;8.74;78.48
39699;BME280;25372;50.582;12.250;2023-11-19T20:16:32;99036.94;;;8.60;80.94
39699;BME280;25372;50.582;12.250;2023-11-19T20:26:54;99045.50;;;8.49;81.11
39699;BME280;25372;50.582;12.250;2023-11-19T20:37:16;99048.03;;;8.63;81.29
39699;BME280;25372;50.582;12.250;2023-11-19T20:47:38;99055.25;;;8.73;81.06
39699;BME280;25372;50.582;12.250;2023-11-19T20:58:00;99056.91;;;8.61;84.80
39699;BME280;25372;50.582;12.250;2023-11-19T21:08:21;99042.22;;;8.19;89.41
39699;BME280;25372;50.582;12.250;2023-11-19T21:18:43;99042.00;;;8.22;88.22
39699;BME280;25372;50.582;12.250;2023-11-19T21:29:04;99030.69;;;8.22;87.85
39699;BME280;25372;50.582;12.250;2023-11-19T21:39:27;99034.16;;;8.22;88.43
39699;BME280;25372;50.582;12.250;2023-11-19T21:49:49;99034.91;;;8.37;87.57
39699;BME280;25372;50.582;12.250;2023-11-19T22:00:12;99027.72;;;8.54;86.19
39699;BME280;25372;50.582;12.250;2023-11-19T22:10:35;99026.34;;;8.35;89.53
39699;BME280;25372;50.582;12.250;2023-11-19T22:20:58;99017.22;;;8.28;89.60
39699;BME280;25372;50.582;12.250;2023-11-19T22:31:20;99006.13;;;8.37;88.90
39699;BME280;25372;50.582;12.250;2023-11-19T22:41:42;98998.16;;;8.39;89.39
39699;BME280;25372;50.582;12.250;2023-11-19T22:52:04;98994.09;;;8.35;89.92
39699;BME280;25372;50.582;12.250;2023-11-19T23:02:26;98996.19;;;8.30;89.27
39699;BME280;25372;50.582;12.250;2023-11-19T23:12:49;98990.97;;;8.30;88.78
39699;BME280;25372;50.582;12.250;2023-11-19T23:23:11;98995.13;;;8.19;89.80
39699;BME280;25372;50.582;12.250;2023-11-19T23:33:32;98991.38;;;8.23;89.20
39699;BME280;25372;50.582;12.250;2023-11-19T23:43:54;98993.56;;;8.43;87.84
39699;BME280;25372;50.582;12.250;2023-11-19T23:54:15;99010.97;;;8.70;84.44
